Time;durP1;ratioP1;P1;durP2;ratioP2;P2;SDS_P1;SDS_P2;PMS_P1;PMS_P2;Temp;Humidity;BMP_temperature;BMP_pressure;BME280_temperature;BME280_humidity;BME280_pressure;Samples;Min_cycle;Max_cycle;Signal;HPM_P1;HPM_P2
2022/05/26 00:00:31;;;;;;;3.90;1.48;;;;;;;14.07;63.95;99631.13;4974234;28;20143;-56
2022/05/26 00:02:57;;;;;;;6.03;1.48;;;;;;;14.17;64.00;99630.41;5007910;28;20025;-56
2022/05/26 00:05:23;;;;;;;2.75;1.40;;;;;;;14.16;63.66;99628.81;4990611;28;20064;-55
2022/05/26 00:07:49;;;;;;;8.18;2.00;;;;;;;14.10;64.13;99632.50;4989572;28;20560;-55
2022/05/26 00:10:14;;;;;;;3.60;1.67;;;;;;;14.07;64.13;99624.94;5007669;28;20013;-56
2022/05/26 00:12:40;;;;;;;2.30;1.15;;;;;;;13.69;66.76;99624.03;5007277;28;20187;-55
2022/05/26 00:15:06;;;;;;;1.75;1.30;;;;;;;13.63;66.97;99630.41;5005608;28;20096;-56
2022/05/26 00:17:32;;;;;;;6.78;1.50;;;;;;;13.63;67.25;99625.88;5006354;28;20132;-55
2022/05/26 00:19:58;;;;;;;4.97;1.77;;;;;;;13.63;66.97;99619.63;5005874;28;20134;-55
2022/05/26 00:22:24;;;;;;;2.20;1.30;;;;;;;13.57;67.44;99614.19;4989688;28;20460;-55
2022/05/26 00:24:50;;;;;;;3.72;1.40;;;;;;;13.72;66.52;99621.63;5007034;28;20136;-55
2022/05/26 00:27:16;;;;;;;3.30;1.30;;;;;;;13.82;65.96;99620.94;4979232;28;20352;-55
2022/05/26 00:29:41;;;;;;;4.15;1.30;;;;;;;13.88;66.14;99622.63;4983200;28;20113;-55
2022/05/26 00:32:07;;;;;;;3.17;1.50;;;;;;;13.97;65.71;99628.34;5005707;28;20037;-55
2022/05/26 00:34:36;;;;;;;2.75;1.27;;;;;;;14.04;65.21;99631.66;5007880;28;20048;-55
2022/05/26 00:37:06;;;;;;;2.65;1.40;;;;;;;13.84;66.59;99634.97;4979047;28;20405;-56
2022/05/26 00:39:31;;;;;;;2.08;1.30;;;;;;;13.74;67.10;99634.84;5001633;28;20030;-55
2022/05/26 00:42:02;;;;;;;3.42;1.60;;;;;;;13.40;68.92;99643.09;5007098;28;20091;-55
2022/05/26 00:44:28;;;;;;;5.07;1.40;;;;;;;13.42;68.99;99643.66;5005938;28;20026;-55
2022/05/26 00:47:05;;;;;;;4.38;1.50;;;;;;;13.25;69.78;99635.59;4989818;28;20029;-55
2022/05/26 00:49:50;;;;;;;3.75;1.48;;;;;;;13.34;69.23;99627.94;4985029;28;20041;-55
2022/05/26 00:52:20;;;;;;;2.72;1.60;;;;;;;13.28;69.81;99634.31;4984588;28;20022;-55
2022/05/26 00:54:46;;;;;;;6.43;1.60;;;;;;;13.25;70.04;99634.78;4985834;28;20034;-54
2022/05/26 00:57:18;;;;;;;1.88;1.30;;;;;;;13.24;70.34;99633.16;4985778;28;20428;-56
2022/05/26 00:59:48;;;;;;;2.22;1.20;;;;;;;13.29;70.07;99638.66;4982512;28;20057;-57
2022/05/26 01:02:13;;;;;;;1.93;1.40;;;;;;;13.34;70.03;99641.41;4984605;28;20341;-57
2022/05/26 01:04:42;;;;;;;1.50;1.33;;;;;;;13.59;68.75;99639.00;4986907;28;20035;-56
2022/05/26 01:07:23;;;;;;;1.25;1.00;;;;;;;13.78;67.63;99644.06;4963193;28;20030;-56
2022/05/26 01:09:48;;;;;;;3.25;1.20;;;;;;;13.86;67.62;99646.31;4981068;28;20496;-57
2022/05/26 01:12:14;;;;;;;2.72;1.20;;;;;;;13.87;67.79;99637.16;4987559;28;20127;-56
2022/05/26 01:14:51;;;;;;;4.22;1.30;;;;;;;13.82;68.33;99645.19;4986905;28;20022;-55
2022/05/26 01:17:32;;;;;;;2.25;1.10;;;;;;;13.84;68.58;99648.44;4980930;28;20038;-56
2022/05/26 01:20:08;;;;;;;2.92;1.20;;;;;;;13.82;68.96;99643.28;4982660;28;20434;-55
2022/05/26 01:23:04;;;;;;;4.68;1.23;;;;;;;13.82;69.46;99654.06;4986003;28;20026;-56
2022/05/26 01:26:03;;;;;;;2.83;1.20;;;;;;;13.86;69.89;99651.69;4983265;28;20400;-55
2022/05/26 01:29:00;;;;;;;3.65;1.40;;;;;;;13.86;69.82;99650.88;4983254;28;20040;-56
2022/05/26 01:31:31;;;;;;;1.40;0.95;;;;;;;13.82;70.15;99642.47;4983567;28;20058;-56
2022/05/26 01:34:29;;;;;;;0.95;0.82;;;;;;;13.85;70.08;99636.56;4986070;28;20038;-56
2022/05/26 01:37:04;;;;;;;3.05;1.60;;;;;;;13.76;70.53;99640.81;4981537;28;20560;-55
2022/05/26 01:39:53;;;;;;;1.45;0.90;;;;;;;13.63;71.24;99641.19;4981139;28;20073;-56
2022/05/26 01:42:24;;;;;;;1.25;1.15;;;;;;;13.56;71.55;99642.22;4966236;28;20290;-56
2022/05/26 01:44:53;;;;;;;2.40;0.85;;;;;;;13.66;71.38;99646.09;5000435;28;20468;-56
2022/05/26 01:47:28;;;;;;;3.10;1.00;;;;;;;13.62;71.74;99647.66;5002046;28;20116;-55
2022/05/26 01:50:15;;;;;;;3.30;1.38;;;;;;;13.52;71.84;99648.34;5005401;28;20041;-55
2022/05/26 01:53:07;;;;;;;5.15;1.50;;;;;;;13.49;71.83;99641.59;4994520;28;20112;-55
2022/05/26 01:55:49;;;;;;;2.33;1.15;;;;;;;13.47;72.17;99643.72;4990361;28;20037;-56
2022/05/26 01:58:35;;;;;;;3.35;1.20;;;;;;;13.20;73.38;99649.00;5005069;28;20084;-55
2022/05/26 02:01:03;;;;;;;1.17;1.08;;;;;;;12.91;75.25;99651.03;5005210;28;20034;-56
2022/05/26 02:03:31;;;;;;;3.30;1.33;;;;;;;12.91;75.44;99645.66;4971758;28;20362;-56
2022/05/26 02:06:19;;;;;;;4.15;2.03;;;;;;;13.01;74.42;99651.19;4985128;28;20076;-56
2022/05/26 02:08:52;;;;;;;2.90;1.38;;;;;;;12.95;74.30;99653.00;4969408;28;20682;-56
2022/05/26 02:11:19;;;;;;;4.55;1.30;;;;;;;12.89;74.63;99643.19;5002627;28;20026;-55
2022/05/26 02:14:12;;;;;;;3.95;1.30;;;;;;;12.76;75.69;99648.94;4986095;28;20030;-55
2022/05/26 02:17:00;;;;;;;3.33;1.50;;;;;;;12.69;75.72;99648.28;4988751;28;20365;-55
2022/05/26 02:19:38;;;;;;;2.15;1.10;;;;;;;12.69;75.72;99649.09;5004200;28;20045;-56
2022/05/26 02:22:03;;;;;;;3.10;1.38;;;;;;;12.34;78.14;99651.22;4983005;28;20357;-56
2022/05/26 02:24:36;;;;;;;3.08;1.60;;;;;;;12.14;79.75;99663.25;5005231;28;20113;-56
2022/05/26 02:27:03;;;;;;;4.40;1.42;;;;;;;12.13;79.85;99656.25;4971953;28;20061;-55
2022/05/26 02:32:12;;;;;;;1.33;1.20;;;;;;;12.21;79.19;99657.75;4989836;28;20066;-57
2022/05/26 02:34:39;;;;;;;3.00;1.27;;;;;;;12.27;79.23;99654.88;4958818;28;20018;-55
2022/05/26 02:37:05;;;;;;;2.40;1.60;;;;;;;12.25;78.98;99653.50;4987097;28;20112;-56
2022/05/26 02:39:30;;;;;;;4.20;1.45;;;;;;;12.23;79.26;99645.69;4973100;28;20121;-55
2022/05/26 02:41:56;;;;;;;1.92;1.40;;;;;;;12.23;79.14;99645.69;5002187;28;20453;-56
2022/05/26 02:44:26;;;;;;;2.92;1.33;;;;;;;12.32;79.13;99642.59;5002485;28;20068;-56
2022/05/26 02:47:28;;;;;;;5.88;1.75;;;;;;;12.32;78.85;99647.97;5004801;28;20030;-55
2022/05/26 02:50:02;;;;;;;2.60;1.50;;;;;;;12.39;78.57;99646.75;5004341;28;20129;-56
2022/05/26 02:52:56;;;;;;;4.38;1.30;;;;;;;12.42;78.66;99642.75;4985813;28;20064;-56
2022/05/26 02:55:43;;;;;;;2.38;1.30;;;;;;;12.58;78.10;99652.69;5005767;28;20075;-56
2022/05/26 02:58:13;;;;;;;2.63;1.33;;;;;;;12.71;77.47;99646.97;5004630;28;20029;-55
2022/05/26 03:00:46;;;;;;;;;;;;;;;12.72;77.57;99663.94;5005253;28;20030;-56
2022/05/26 03:03:19;;;;;;;3.33;1.40;;;;;;;12.56;78.58;99654.00;4984588;28;20260;-55
2022/05/26 03:05:53;;;;;;;3.72;1.50;;;;;;;12.51;79.13;99657.44;4969772;28;20034;-55
2022/05/26 03:08:21;;;;;;;2.75;1.40;;;;;;;12.27;80.28;99657.56;4999299;28;20022;-55
2022/05/26 03:10:52;;;;;;;2.30;1.30;;;;;;;12.44;80.04;99656.78;4973311;28;20350;-56
2022/05/26 03:13:18;;;;;;;2.17;1.40;;;;;;;12.52;79.33;99654.47;5004730;28;20034;-55
2022/05/26 03:15:44;;;;;;;3.85;1.42;;;;;;;12.76;78.24;99653.50;5005591;28;20116;-56
2022/05/26 03:18:09;;;;;;;3.60;1.27;;;;;;;12.86;77.78;99659.03;4987248;28;20046;-56
2022/05/26 03:20:36;;;;;;;7.35;1.70;;;;;;;12.85;77.95;99654.69;5005120;28;20117;-56
2022/05/26 03:23:02;;;;;;;1.42;1.08;;;;;;;12.91;77.62;99661.78;5003787;28;20113;-56
2022/05/26 03:25:27;;;;;;;2.38;1.30;;;;;;;12.87;77.40;99655.28;5004013;28;20109;-56
2022/05/26 03:27:53;;;;;;;3.70;1.40;;;;;;;12.81;77.77;99653.59;5004837;28;20073;-56
2022/05/26 03:30:19;;;;;;;1.48;1.30;;;;;;;12.81;77.70;99658.97;5004307;28;20469;-57
2022/05/26 03:32:46;;;;;;;2.35;1.20;;;;;;;12.75;78.36;99660.72;5002711;28;20038;-57
2022/05/26 03:40:46;;;;;;;3.20;1.52;;;;;;;12.71;78.68;99668.50;4989636;28;20565;-55
2022/05/26 03:43:12;;;;;;;3.42;1.58;;;;;;;12.75;78.51;99682.25;4981290;28;20031;-56
2022/05/26 03:45:40;;;;;;;4.55;1.30;;;;;;;12.81;78.45;99678.59;4987126;28;20057;-56
2022/05/26 03:48:06;;;;;;;1.85;1.27;;;;;;;12.83;78.19;99689.09;4963510;28;20523;-56
2022/05/26 03:50:32;;;;;;;3.05;1.20;;;;;;;12.82;78.34;99692.84;5004117;28;20038;-55
2022/05/26 03:52:58;;;;;;;3.85;1.48;;;;;;;12.78;78.92;99686.31;5004617;28;20132;-55
2022/05/26 03:55:23;;;;;;;4.35;1.38;;;;;;;12.86;78.16;99699.38;5004988;28;20026;-56
2022/05/26 03:57:49;;;;;;;1.52;1.30;;;;;;;12.90;77.96;99692.44;5008177;28;20053;-56
2022/05/26 04:00:16;;;;;;;4.55;1.40;;;;;;;12.91;78.31;99694.09;4973601;28;20092;-56
2022/05/26 04:02:42;;;;;;;5.72;1.48;;;;;;;12.95;78.25;99696.03;5008507;28;20611;-55
2022/05/26 04:05:08;;;;;;;3.22;1.30;;;;;;;13.00;78.11;99702.53;5006879;28;20120;-55
2022/05/26 04:07:34;;;;;;;4.03;1.55;;;;;;;13.07;77.94;99700.50;4983288;28;20049;-55
2022/05/26 04:10:02;;;;;;;2.28;1.40;;;;;;;12.97;78.08;99703.84;5007479;28;20033;-55
2022/05/26 04:12:28;;;;;;;3.42;1.17;;;;;;;12.94;78.38;99705.16;4990617;28;20022;-56
2022/05/26 04:14:54;;;;;;;2.33;1.30;;;;;;;13.02;78.47;99708.50;4990133;28;20113;-55
2022/05/26 04:17:19;;;;;;;2.95;1.50;;;;;;;13.03;78.10;99702.88;5005452;28;20034;-53
2022/05/26 04:19:48;;;;;;;3.25;1.77;;;;;;;13.10;78.09;99700.00;5008875;28;20037;-55
2022/05/26 04:22:17;;;;;;;2.53;1.30;;;;;;;13.16;77.92;99707.91;5007385;28;20037;-56
2022/05/26 04:24:47;;;;;;;2.67;1.30;;;;;;;13.20;77.50;99715.47;5006946;28;20038;-58
2022/05/26 04:27:13;;;;;;;2.93;1.57;;;;;;;13.15;77.87;99718.91;5003864;28;20034;-56
2022/05/26 04:29:39;;;;;;;2.22;1.17;;;;;;;13.15;77.45;99717.03;5006291;28;20058;-56
2022/05/26 04:32:05;;;;;;;3.03;1.60;;;;;;;13.26;77.54;99717.19;5006662;28;20088;-55
2022/05/26 04:34:30;;;;;;;4.47;1.60;;;;;;;13.27;77.33;99721.53;4983762;28;20033;-56
2022/05/26 04:36:56;;;;;;;4.43;1.50;;;;;;;13.37;76.96;99722.47;5007279;28;20034;-56
2022/05/26 04:39:24;;;;;;;1.85;1.35;;;;;;;13.34;76.89;99719.47;5006704;28;20029;-57
2022/05/26 04:41:50;;;;;;;2.78;1.27;;;;;;;13.41;76.82;99728.19;4990388;28;20742;-57
2022/05/26 04:44:16;;;;;;;4.00;1.75;;;;;;;13.35;77.02;99716.53;5007664;28;20578;-56
2022/05/26 04:46:42;;;;;;;3.47;1.50;;;;;;;13.37;76.89;99719.78;5007246;28;20068;-56
2022/05/26 04:49:08;;;;;;;2.70;1.30;;;;;;;13.39;76.99;99727.63;5006480;28;20511;-56
2022/05/26 04:51:34;;;;;;;4.80;1.70;;;;;;;13.43;77.14;99718.00;5006297;28;20432;-57
2022/05/26 04:54:01;;;;;;;4.57;1.65;;;;;;;13.35;77.70;99729.16;5006849;28;20026;-54
2022/05/26 04:56:26;;;;;;;4.15;1.50;;;;;;;13.44;77.24;99725.00;5003432;28;20022;-56
2022/05/26 04:58:52;;;;;;;1.65;1.40;;;;;;;13.41;77.37;99724.69;5006604;28;20040;-56
2022/05/26 05:01:19;;;;;;;3.67;1.40;;;;;;;13.32;77.89;99727.78;4989781;28;20033;-58
2022/05/26 05:03:45;;;;;;;1.92;1.30;;;;;;;13.42;77.51;99721.72;4987502;28;20033;-55
2022/05/26 05:06:10;;;;;;;3.10;1.55;;;;;;;13.45;77.13;99720.41;5007175;28;20704;-56
2022/05/26 05:08:36;;;;;;;3.25;1.50;;;;;;;13.66;76.79;99721.50;4978524;28;20091;-57
2022/05/26 05:11:02;;;;;;;1.67;1.33;;;;;;;13.76;75.94;99727.03;4986654;28;20038;-56
2022/05/26 05:13:28;;;;;;;4.07;1.33;;;;;;;13.63;76.57;99728.22;5007805;28;20522;-56
2022/05/26 05:16:02;;;;;;;4.10;1.40;;;;;;;13.80;76.06;99730.81;5006873;28;20100;-56
2022/05/26 05:18:28;;;;;;;1.63;1.30;;;;;;;13.78;77.11;99741.88;4989595;28;20048;-55
2022/05/26 05:20:54;;;;;;;6.53;1.52;;;;;;;13.82;76.02;99742.16;4985278;28;20038;-55
2022/05/26 05:23:20;;;;;;;4.30;1.70;;;;;;;13.97;75.25;99749.63;4963655;28;20105;-53
2022/05/26 05:25:48;;;;;;;3.15;1.30;;;;;;;14.09;75.10;99752.19;5002616;28;20133;-55
2022/05/26 05:28:26;;;;;;;4.38;1.60;;;;;;;14.10;75.05;99754.59;5007465;28;20477;-55
2022/05/26 05:31:00;;;;;;;3.00;1.40;;;;;;;14.10;74.21;99748.41;4970860;28;20036;-56
2022/05/26 05:33:39;;;;;;;3.05;1.40;;;;;;;14.31;73.76;99750.25;4987917;28;20026;-56
2022/05/26 05:36:07;;;;;;;4.27;1.70;;;;;;;14.38;73.01;99745.50;5005784;28;20062;-55
2022/05/26 05:38:35;;;;;;;3.00;1.45;;;;;;;14.40;73.12;99759.53;4987899;28;20302;-55
2022/05/26 05:41:01;;;;;;;6.38;2.03;;;;;;;14.51;72.80;99759.63;4989210;28;20076;-55
2022/05/26 05:43:29;;;;;;;4.40;1.75;;;;;;;14.67;72.35;99758.72;4970463;28;20026;-56
2022/05/26 05:45:54;;;;;;;4.43;1.50;;;;;;;15.68;69.37;99763.19;5003982;28;20469;-55
2022/05/26 05:48:21;;;;;;;5.15;1.70;;;;;;;14.96;71.22;99763.81;5005616;28;20053;-56
2022/05/26 05:50:47;;;;;;;5.10;1.67;;;;;;;14.61;72.00;99762.44;5002567;28;20041;-55
2022/05/26 05:53:15;;;;;;;7.45;1.50;;;;;;;14.46;72.93;99763.91;5005249;28;20037;-56
2022/05/26 05:55:41;;;;;;;5.15;1.83;;;;;;;14.61;72.49;99765.16;5006228;28;20072;-56
2022/05/26 05:58:08;;;;;;;5.55;1.85;;;;;;;14.41;72.83;99761.16;5006109;28;20130;-57
2022/05/26 06:00:37;;;;;;;5.93;1.88;;;;;;;14.36;72.28;99766.50;5003269;28;20108;-56
2022/05/26 06:03:03;;;;;;;4.05;1.60;;;;;;;14.62;72.02;99767.56;5002659;28;20025;-56
2022/05/26 06:05:29;;;;;;;4.88;1.55;;;;;;;14.72;71.82;99772.25;4988318;28;20038;-56
2022/05/26 06:07:54;;;;;;;4.32;2.00;;;;;;;14.87;71.10;99768.88;5006484;28;20045;-56
2022/05/26 06:10:20;;;;;;;3.20;1.70;;;;;;;15.01;70.80;99771.97;5005970;28;20034;-56
2022/05/26 06:12:46;;;;;;;7.68;1.88;;;;;;;15.06;70.37;99772.00;5005657;28;20484;-54
2022/05/26 06:15:12;;;;;;;6.40;1.80;;;;;;;15.09;69.71;99776.88;5006339;28;20053;-57
2022/05/26 06:17:37;;;;;;;5.35;1.67;;;;;;;15.29;69.10;99789.72;5005676;28;20535;-57
2022/05/26 06:20:04;;;;;;;4.32;1.50;;;;;;;15.26;69.62;99788.34;5002845;28;20026;-55
2022/05/26 06:22:30;;;;;;;3.40;1.60;;;;;;;15.36;69.00;99786.78;5006087;28;20087;-56
2022/05/26 06:24:56;;;;;;;5.72;1.70;;;;;;;15.63;68.34;99784.78;5004590;28;20572;-56
2022/05/26 06:30:09;;;;;;;6.75;1.77;;;;;;;16.83;64.38;99793.88;5006542;28;20096;-55
2022/05/26 06:38:11;;;;;;;8.88;1.88;;;;;;;17.65;60.58;99801.91;5003060;28;20041;-56
2022/05/26 06:40:36;;;;;;;3.92;1.50;;;;;;;18.57;58.46;99806.97;5004256;28;20109;-55
2022/05/26 06:43:02;;;;;;;5.13;1.88;;;;;;;19.31;56.06;99807.75;5005354;28;20479;-56
2022/05/26 06:45:28;;;;;;;4.95;1.70;;;;;;;18.28;59.12;99813.09;4988027;28;20026;-55
2022/05/26 06:47:53;;;;;;;3.92;1.45;;;;;;;20.83;52.53;99816.28;5005047;28;20057;-56
2022/05/26 06:50:19;;;;;;;5.25;2.03;;;;;;;23.76;45.15;99831.69;5004539;28;20030;-55
2022/05/26 06:52:44;;;;;;;7.38;1.40;;;;;;;20.24;52.56;99829.31;5004233;28;20038;-56
2022/05/26 06:55:10;;;;;;;7.35;1.70;;;;;;;18.94;56.52;99832.78;5005159;28;20117;-57
2022/05/26 06:57:36;;;;;;;4.88;1.40;;;;;;;18.39;58.02;99845.59;4985319;28;20502;-56
2022/05/26 07:00:06;;;;;;;5.25;1.35;;;;;;;17.98;59.18;99837.63;5002955;28;20522;-56
2022/05/26 07:02:32;;;;;;;4.13;1.60;;;;;;;18.27;59.57;99835.88;5004466;28;20022;-56
2022/05/26 07:04:58;;;;;;;6.55;1.67;;;;;;;17.79;59.69;99838.19;5002628;28;20045;-56
2022/05/26 07:07:25;;;;;;;3.25;1.70;;;;;;;18.24;59.36;99841.84;5001385;28;20134;-56
2022/05/26 07:09:54;;;;;;;4.25;2.08;;;;;;;18.57;57.76;99853.09;5003182;28;20030;-55
2022/05/26 07:12:19;;;;;;;5.32;1.70;;;;;;;19.14;56.58;99859.78;5003993;28;20294;-55
2022/05/26 07:14:45;;;;;;;6.32;1.55;;;;;;;19.55;55.02;99851.28;5003829;28;20152;-56
2022/05/26 07:17:11;;;;;;;5.78;1.80;;;;;;;19.29;55.52;99853.41;5002702;28;20122;-56
2022/05/26 07:19:37;;;;;;;5.53;1.77;;;;;;;19.83;54.73;99862.47;5001770;28;20802;-55
2022/05/26 07:22:02;;;;;;;5.82;1.60;;;;;;;20.82;52.45;99867.25;4981720;28;20034;-56
2022/05/26 07:24:28;;;;;;;5.30;1.48;;;;;;;20.78;52.22;99871.66;4999782;28;20551;-56
2022/05/26 07:26:53;;;;;;;4.78;1.67;;;;;;;20.92;51.50;99865.44;5003505;28;20030;-56
2022/05/26 07:29:19;;;;;;;5.10;1.63;;;;;;;20.87;50.95;99856.25;4980464;28;20056;-53
2022/05/26 07:31:45;;;;;;;7.15;1.63;;;;;;;23.50;45.58;99871.78;5008967;28;20319;-56
2022/05/26 07:34:11;;;;;;;8.10;1.90;;;;;;;24.48;42.53;99871.56;5007345;28;20125;-56
2022/05/26 07:42:13;;;;;;;4.65;1.73;;;;;;;26.38;38.89;99878.97;5006958;28;20081;-56
2022/05/26 07:44:45;;;;;;;5.47;1.73;;;;;;;22.88;45.60;99883.38;5008338;28;20125;-56
2022/05/26 07:47:10;;;;;;;5.10;1.73;;;;;;;21.35;49.76;99882.50;4988981;28;20092;-57
2022/05/26 07:49:38;;;;;;;4.22;1.73;;;;;;;20.78;51.11;99882.53;4996024;28;20046;-56
2022/05/26 07:52:04;;;;;;;7.20;1.83;;;;;;;20.63;51.30;99890.94;4982878;28;20030;-56
2022/05/26 07:54:30;;;;;;;4.78;1.80;;;;;;;19.92;52.48;99890.66;4975973;28;20432;-55
2022/05/26 07:56:56;;;;;;;7.20;1.80;;;;;;;20.15;53.06;99890.97;4981670;28;20034;-54
2022/05/26 07:59:22;;;;;;;7.13;1.90;;;;;;;20.80;50.63;99895.88;4982014;28;20023;-55
2022/05/26 08:01:48;;;;;;;7.03;1.85;;;;;;;20.00;51.74;99895.47;4988911;28;20074;-55
2022/05/26 08:04:14;;;;;;;7.07;1.88;;;;;;;19.99;52.08;99902.03;4987132;28;20100;-56
2022/05/26 08:06:40;;;;;;;4.57;1.70;;;;;;;19.24;54.31;99902.38;4981527;28;20432;-54
2022/05/26 08:09:05;;;;;;;6.35;1.73;;;;;;;18.79;55.65;99914.34;4985457;28;20539;-55
2022/05/26 08:11:31;;;;;;;4.47;1.50;;;;;;;18.79;55.76;99906.22;4983749;28;20093;-54
2022/05/26 08:13:56;;;;;;;3.75;1.80;;;;;;;18.70;55.85;99917.66;4987714;28;20491;-54
2022/05/26 08:16:22;;;;;;;4.05;1.80;;;;;;;18.87;55.80;99916.47;4988684;28;20227;-55
2022/05/26 08:18:48;;;;;;;4.35;1.80;;;;;;;18.82;56.15;99919.22;5002780;28;20045;-55
2022/05/26 08:21:16;;;;;;;6.28;1.80;;;;;;;18.57;56.31;99912.81;4986163;28;20501;-55
2022/05/26 08:23:41;;;;;;;5.47;1.80;;;;;;;18.61;55.59;99918.50;4989235;28;20029;-55
2022/05/26 08:26:07;;;;;;;5.80;1.80;;;;;;;19.00;55.31;99907.72;4987000;28;20109;-56
2022/05/26 08:28:33;;;;;;;7.75;1.70;;;;;;;19.53;54.14;99917.94;4987458;28;20566;-57
2022/05/26 08:30:59;;;;;;;5.60;1.95;;;;;;;20.02;53.46;99906.88;4986168;28;20030;-54
2022/05/26 08:33:28;;;;;;;5.30;1.75;;;;;;;21.26;50.11;99908.81;4984547;28;20064;-55
2022/05/26 08:36:21;;;;;;;5.82;1.73;;;;;;;21.07;50.60;99911.56;4986846;28;20040;-54
2022/05/26 08:38:47;;;;;;;5.90;1.70;;;;;;;20.87;50.81;99913.47;4983658;28;20046;-55
2022/05/26 08:41:39;;;;;;;5.28;2.10;;;;;;;20.91;50.00;99924.59;4987218;28;20042;-55
2022/05/26 08:44:14;;;;;;;7.00;1.70;;;;;;;20.50;50.13;99924.31;4986313;28;20041;-55
2022/05/26 08:46:48;;;;;;;4.97;1.60;;;;;;;20.61;49.56;99923.09;4986525;28;20022;-54
2022/05/26 08:49:35;;;;;;;4.45;1.73;;;;;;;20.58;49.88;99929.13;5002045;28;20381;-54
2022/05/26 08:52:06;;;;;;;5.03;1.70;;;;;;;20.93;49.00;99932.47;4977180;28;20476;-54
2022/05/26 08:54:52;;;;;;;6.72;1.90;;;;;;;23.13;44.68;99942.16;4988210;28;20069;-55
2022/05/26 08:57:31;;;;;;;4.00;1.80;;;;;;;23.20;43.23;99937.84;4988856;28;20022;-54
2022/05/26 08:59:57;;;;;;;3.72;2.00;;;;;;;23.67;42.34;99943.03;4987501;28;20026;-55
2022/05/26 09:02:26;;;;;;;5.90;2.08;;;;;;;23.91;41.77;99934.50;5006148;28;20510;-54
2022/05/26 09:04:54;;;;;;;3.80;1.65;;;;;;;24.16;41.17;99941.22;5004365;28;20455;-55
2022/05/26 09:12:59;;;;;;;5.45;1.60;;;;;;;23.60;43.23;99939.94;4984413;28;20558;-55
2022/05/26 09:15:28;;;;;;;5.22;1.60;;;;;;;23.76;42.69;99946.63;5001225;28;20542;-54
2022/05/26 09:17:54;;;;;;;7.97;1.88;;;;;;;23.09;44.06;99944.69;5001770;28;20088;-54
2022/05/26 09:20:34;;;;;;;5.88;1.83;;;;;;;22.79;44.61;99944.22;5004018;28;20041;-52
2022/05/26 09:23:12;;;;;;;7.00;1.90;;;;;;;24.97;40.39;99948.22;4988030;28;20593;-54
2022/05/26 09:25:45;;;;;;;6.55;2.00;;;;;;;23.22;43.38;99946.56;5005223;28;20097;-55
2022/05/26 09:28:11;;;;;;;6.18;1.80;;;;;;;22.34;44.78;99937.78;4987890;28;20491;-55
2022/05/26 09:30:37;;;;;;;5.13;1.70;;;;;;;21.87;46.01;99935.09;4988315;28;20109;-54
2022/05/26 09:33:16;;;;;;;5.97;1.90;;;;;;;21.49;46.93;99939.81;5005281;28;20369;-55
2022/05/26 09:35:41;;;;;;;7.05;1.92;;;;;;;21.33;47.59;99950.13;4986376;28;20051;-55
2022/05/26 09:38:07;;;;;;;4.82;1.73;;;;;;;22.26;45.09;99947.47;5003821;28;20128;-54
2022/05/26 09:40:40;;;;;;;5.88;1.75;;;;;;;22.68;43.87;99952.94;4981656;28;20511;-55
2022/05/26 09:43:09;;;;;;;5.72;1.90;;;;;;;23.21;42.00;99949.59;5001835;28;20072;-54
2022/05/26 09:45:48;;;;;;;5.40;2.05;;;;;;;24.25;39.75;99958.50;5006351;28;20054;-54
2022/05/26 09:48:24;;;;;;;5.40;1.95;;;;;;;24.44;40.67;99960.19;5005539;28;20408;-54
2022/05/26 09:51:02;;;;;;;7.00;1.95;;;;;;;23.83;39.72;99960.69;4967363;28;20034;-54
2022/05/26 09:53:51;;;;;;;5.20;2.00;;;;;;;25.80;37.90;99967.25;5001660;28;20488;-55
2022/05/26 09:56:27;;;;;;;6.82;1.95;;;;;;;26.20;35.86;99960.69;5005917;28;20069;-55
2022/05/26 09:58:53;;;;;;;5.28;1.85;;;;;;;25.01;38.71;99965.66;5007226;28;20033;-54
2022/05/26 10:01:24;;;;;;;4.43;1.70;;;;;;;23.13;42.45;99974.94;4988450;28;20699;-55
2022/05/26 10:03:58;;;;;;;4.38;1.80;;;;;;;21.92;44.57;99972.41;5006806;28;20529;-55
2022/05/26 10:06:26;;;;;;;4.20;1.80;;;;;;;21.25;46.62;99973.44;4969548;28;20068;-55
2022/05/26 10:09:09;;;;;;;4.63;1.88;;;;;;;21.32;46.02;99973.88;5003505;28;20104;-55
2022/05/26 10:11:47;;;;;;;14.45;2.45;;;;;;;22.09;42.69;99972.63;5001630;28;20041;-54
2022/05/26 10:14:18;;;;;;;12.48;1.98;;;;;;;22.65;41.78;99978.94;5000562;28;20427;-55
2022/05/26 10:16:43;;;;;;;3.88;1.55;;;;;;;23.94;39.97;99976.84;4982139;28;20054;-55
2022/05/26 10:19:52;;;;;;;4.03;1.80;;;;;;;24.34;39.33;99980.44;5002768;28;20092;-54
2022/05/26 10:22:42;;;;;;;4.15;1.70;;;;;;;24.31;39.04;99967.38;4970828;28;20034;-56
2022/05/26 10:25:26;;;;;;;4.07;1.60;;;;;;;23.94;38.84;99961.25;4986389;28;20037;-55
2022/05/26 10:28:00;;;;;;;4.00;1.80;;;;;;;22.98;40.50;99974.16;4997553;28;20052;-54
2022/05/26 10:30:36;;;;;;;4.65;1.80;;;;;;;24.35;37.90;99970.31;4983637;28;20030;-54
2022/05/26 10:33:01;;;;;;;4.43;1.80;;;;;;;23.60;38.36;99972.75;5002879;28;20036;-54
2022/05/26 10:35:41;;;;;;;4.68;1.60;;;;;;;24.71;35.89;99973.69;5005245;28;20138;-55
2022/05/26 10:38:34;;;;;;;4.15;1.70;;;;;;;24.24;37.03;99975.25;5002379;28;20076;-54
2022/05/26 10:41:34;;;;;;;4.72;1.70;;;;;;;22.88;38.60;99974.38;4986570;28;20037;-54
2022/05/26 10:44:05;;;;;;;3.55;1.48;;;;;;;23.41;38.34;99968.28;5002415;28;20101;-54
2022/05/26 10:46:31;;;;;;;4.68;1.65;;;;;;;24.20;36.51;99964.09;4983053;28;20501;-54
2022/05/26 10:49:19;;;;;;;7.13;2.28;;;;;;;25.11;35.01;99965.34;5001028;28;20046;-55
2022/05/26 10:51:53;;;;;;;5.90;1.80;;;;;;;25.23;34.46;99956.50;5001598;28;20120;-55
2022/05/26 10:54:37;;;;;;;4.85;2.05;;;;;;;24.20;36.31;99950.41;4978066;28;20021;-55
2022/05/26 10:57:14;;;;;;;6.28;1.90;;;;;;;25.44;35.84;99955.84;5003711;28;20026;-54
2022/05/26 10:59:54;;;;;;;5.95;1.98;;;;;;;24.86;35.70;99960.63;4981613;28;20177;-53
2022/05/26 11:02:39;;;;;;;3.13;1.60;;;;;;;24.62;37.54;99959.13;4970637;28;20119;-53
2022/05/26 11:05:06;;;;;;;5.53;1.77;;;;;;;23.88;39.11;99968.78;4988929;28;20029;-56
2022/05/26 11:07:47;;;;;;;4.97;1.60;;;;;;;23.32;40.51;99959.19;5008747;28;20061;-54
2022/05/26 11:10:29;;;;;;;3.30;1.60;;;;;;;23.59;39.68;99966.47;5004643;28;20080;-55
2022/05/26 11:13:08;;;;;;;7.07;1.80;;;;;;;23.47;40.08;99966.22;4989317;28;20120;-54
2022/05/26 11:18:37;;;;;;;9.38;1.70;;;;;;;23.78;38.94;99977.25;4978381;28;20625;-55
2022/05/26 11:21:03;;;;;;;6.43;2.10;;;;;;;24.55;38.07;99961.53;4989566;28;20477;-54
2022/05/26 11:23:31;;;;;;;4.65;1.70;;;;;;;24.19;37.71;99962.50;4990820;28;20037;-54
2022/05/26 11:26:02;;;;;;;5.15;1.90;;;;;;;24.71;36.67;99959.97;4968879;28;20040;-54
2022/05/26 11:28:29;;;;;;;5.43;1.90;;;;;;;23.66;37.93;99957.81;5005567;28;20036;-54
2022/05/26 11:36:48;;;;;;;4.22;1.70;;;;;;;22.69;41.26;99954.53;5007726;28;20098;-56
2022/05/26 11:39:22;;;;;;;8.15;1.80;;;;;;;22.85;41.64;99955.84;5005030;28;20034;-54
2022/05/26 11:41:50;;;;;;;5.22;1.88;;;;;;;23.07;41.99;99954.31;4983955;28;20049;-54
2022/05/26 11:44:52;;;;;;;4.22;1.60;;;;;;;23.82;39.29;99952.81;5002740;28;20495;-54
2022/05/26 11:47:32;;;;;;;5.95;1.83;;;;;;;24.15;39.11;99950.56;4965595;28;20200;-55
2022/05/26 11:50:00;;;;;;;4.28;1.67;;;;;;;23.55;38.11;99948.25;5003622;28;20657;-55
2022/05/26 11:52:34;;;;;;;4.10;1.67;;;;;;;23.23;38.63;99950.09;5006787;28;20041;-54
2022/05/26 11:55:02;;;;;;;4.18;1.80;;;;;;;22.70;40.77;99950.72;5002881;28;20411;-53
2022/05/26 11:57:48;;;;;;;4.07;1.70;;;;;;;22.70;41.14;99957.00;5007035;28;20027;-54
2022/05/26 12:00:23;;;;;;;3.88;1.60;;;;;;;22.18;42.33;99948.16;5001260;28;20218;-54
2022/05/26 12:02:51;;;;;;;4.93;1.70;;;;;;;22.21;42.60;99944.84;5007924;28;20121;-53
2022/05/26 12:05:46;;;;;;;5.13;1.70;;;;;;;23.53;40.15;99945.81;4972765;28;20463;-54
2022/05/26 12:08:27;;;;;;;4.88;1.67;;;;;;;24.03;38.98;99937.44;4992553;28;20048;-54
2022/05/26 12:10:57;;;;;;;4.85;1.70;;;;;;;24.41;37.63;99936.16;4984222;28;20022;-57
2022/05/26 12:13:28;;;;;;;4.82;2.03;;;;;;;24.52;37.96;99935.56;5007105;28;20060;-55
2022/05/26 12:16:15;;;;;;;4.25;1.70;;;;;;;24.53;38.10;99939.13;4987715;28;20380;-54
2022/05/26 12:19:01;;;;;;;6.03;2.15;;;;;;;23.77;39.10;99937.31;5007046;28;20548;-54
2022/05/26 12:21:29;;;;;;;6.05;2.17;;;;;;;23.39;39.43;99940.44;4986358;28;20037;-54
2022/05/26 12:23:58;;;;;;;6.90;2.00;;;;;;;23.45;39.83;99944.66;5007788;28;20358;-54
2022/05/26 12:26:46;;;;;;;6.28;1.85;;;;;;;23.60;39.29;99951.66;4983243;28;20319;-55
2022/05/26 12:29:42;;;;;;;4.20;1.85;;;;;;;23.73;39.22;99950.00;5002567;28;20045;-54